sensor_id;sensor_type;location;lat;lon;timestamp;P1;durP1;ratioP1;P2;durP2;ratioP2
37641;SDS011;23486;51.956;5.888;2022-10-16T00:01:10;2.80;;;0.52;;
37641;SDS011;23486;51.956;5.888;2022-10-16T00:03:38;3.47;;;0.80;;
37641;SDS011;23486;51.956;5.888;2022-10-16T00:06:05;3.85;;;0.70;;
37641;SDS011;23486;51.956;5.888;2022-10-16T00:08:31;2.45;;;0.80;;
37641;SDS011;23486;51.956;5.888;2022-10-16T00:11:01;3.53;;;0.88;;
37641;SDS011;23486;51.956;5.888;2022-10-16T00:13:30;1.98;;;0.68;;
37641;SDS011;23486;51.956;5.888;2022-10-16T00:15:57;6.30;;;1.20;;
37641;SDS011;23486;51.956;5.888;2022-10-16T00:18:24;4.88;;;1.33;;
37641;SDS011;23486;51.956;5.888;2022-10-16T00:20:50;4.22;;;1.40;;
37641;SDS011;23486;51.956;5.888;2022-10-16T00:23:16;6.18;;;1.50;;
37641;SDS011;23486;51.956;5.888;2022-10-16T00:25:42;5.47;;;1.48;;
37641;SDS011;23486;51.956;5.888;2022-10-16T00:28:07;5.70;;;1.23;;
37641;SDS011;23486;51.956;5.888;2022-10-16T00:30:33;6.38;;;1.70;;
37641;SDS011;23486;51.956;5.888;2022-10-16T00:32:59;4.68;;;1.60;;
37641;SDS011;23486;51.956;5.888;2022-10-16T00:35:24;3.85;;;1.50;;
37641;SDS011;23486;51.956;5.888;2022-10-16T00:37:50;5.68;;;1.88;;
37641;SDS011;23486;51.956;5.888;2022-10-16T00:40:15;3.78;;;1.65;;
37641;SDS011;23486;51.956;5.888;2022-10-16T00:42:41;12.68;;;2.08;;
37641;SDS011;23486;51.956;5.888;2022-10-16T00:45:08;3.88;;;1.73;;
37641;SDS011;23486;51.956;5.888;2022-10-16T00:47:36;3.53;;;1.73;;
37641;SDS011;23486;51.956;5.888;2022-10-16T00:52:52;5.82;;;2.00;;
37641;SDS011;23486;51.956;5.888;2022-10-16T00:55:19;5.70;;;1.60;;
37641;SDS011;23486;51.956;5.888;2022-10-16T00:57:45;5.00;;;1.75;;
37641;SDS011;23486;51.956;5.888;2022-10-16T01:00:14;7.07;;;1.58;;
37641;SDS011;23486;51.956;5.888;2022-10-16T01:05:16;3.97;;;1.80;;
37641;SDS011;23486;51.956;5.888;2022-10-16T01:07:48;3.15;;;1.23;;
37641;SDS011;23486;51.956;5.888;2022-10-16T01:10:40;5.10;;;1.75;;
37641;SDS011;23486;51.956;5.888;2022-10-16T01:13:21;5.97;;;1.92;;
37641;SDS011;23486;51.956;5.888;2022-10-16T01:18:27;6.55;;;2.30;;
37641;SDS011;23486;51.956;5.888;2022-10-16T01:29:03;3.55;;;1.50;;
37641;SDS011;23486;51.956;5.888;2022-10-16T01:31:31;5.25;;;1.85;;
37641;SDS011;23486;51.956;5.888;2022-10-16T01:36:31;4.97;;;1.95;;
37641;SDS011;23486;51.956;5.888;2022-10-16T01:39:03;5.13;;;2.25;;
37641;SDS011;23486;51.956;5.888;2022-10-16T01:41:38;4.28;;;2.45;;
37641;SDS011;23486;51.956;5.888;2022-10-16T01:44:10;2.88;;;1.73;;
37641;SDS011;23486;51.956;5.888;2022-10-16T01:46:52;3.97;;;1.80;;
37641;SDS011;23486;51.956;5.888;2022-10-16T01:49:19;7.30;;;1.83;;
37641;SDS011;23486;51.956;5.888;2022-10-16T01:51:48;3.17;;;1.65;;
37641;SDS011;23486;51.956;5.888;2022-10-16T01:54:17;5.43;;;2.03;;
37641;SDS011;23486;51.956;5.888;2022-10-16T01:56:44;4.70;;;1.77;;
37641;SDS011;23486;51.956;5.888;2022-10-16T01:59:14;7.05;;;1.90;;
37641;SDS011;23486;51.956;5.888;2022-10-16T02:01:44;4.25;;;2.03;;
37641;SDS011;23486;51.956;5.888;2022-10-16T02:04:36;3.53;;;1.83;;
37641;SDS011;23486;51.956;5.888;2022-10-16T02:07:02;4.97;;;1.83;;
37641;SDS011;23486;51.956;5.888;2022-10-16T02:09:29;4.78;;;1.88;;
37641;SDS011;23486;51.956;5.888;2022-10-16T02:11:57;5.47;;;1.88;;
37641;SDS011;23486;51.956;5.888;2022-10-16T02:14:27;4.13;;;1.70;;
37641;SDS011;23486;51.956;5.888;2022-10-16T02:16:53;3.67;;;1.50;;
37641;SDS011;23486;51.956;5.888;2022-10-16T02:19:19;2.85;;;1.45;;
37641;SDS011;23486;51.956;5.888;2022-10-16T02:21:49;7.32;;;2.20;;
37641;SDS011;23486;51.956;5.888;2022-10-16T02:26:55;5.07;;;1.67;;
37641;SDS011;23486;51.956;5.888;2022-10-16T02:29:28;5.32;;;2.10;;
37641;SDS011;23486;51.956;5.888;2022-10-16T02:31:55;3.40;;;1.67;;
37641;SDS011;23486;51.956;5.888;2022-10-16T02:36:55;5.95;;;1.50;;
37641;SDS011;23486;51.956;5.888;2022-10-16T02:39:22;3.08;;;1.00;;
37641;SDS011;23486;51.956;5.888;2022-10-16T02:41:48;4.22;;;1.15;;
37641;SDS011;23486;51.956;5.888;2022-10-16T02:44:14;3.42;;;1.13;;
37641;SDS011;23486;51.956;5.888;2022-10-16T02:46:39;3.45;;;1.00;;
37641;SDS011;23486;51.956;5.888;2022-10-16T02:49:05;3.20;;;1.10;;
37641;SDS011;23486;51.956;5.888;2022-10-16T02:51:30;5.65;;;1.25;;
37641;SDS011;23486;51.956;5.888;2022-10-16T02:53:56;3.85;;;1.13;;
37641;SDS011;23486;51.956;5.888;2022-10-16T02:56:22;4.45;;;1.42;;
37641;SDS011;23486;51.956;5.888;2022-10-16T02:58:47;2.75;;;1.02;;
37641;SDS011;23486;51.956;5.888;2022-10-16T03:01:13;4.07;;;1.10;;
37641;SDS011;23486;51.956;5.888;2022-10-16T03:03:41;3.83;;;1.42;;
37641;SDS011;23486;51.956;5.888;2022-10-16T03:06:07;5.50;;;1.33;;
37641;SDS011;23486;51.956;5.888;2022-10-16T03:08:32;3.33;;;1.25;;
37641;SDS011;23486;51.956;5.888;2022-10-16T03:10:58;4.50;;;1.10;;
37641;SDS011;23486;51.956;5.888;2022-10-16T03:13:23;3.00;;;1.42;;
37641;SDS011;23486;51.956;5.888;2022-10-16T03:15:49;3.47;;;0.93;;
37641;SDS011;23486;51.956;5.888;2022-10-16T03:18:15;4.10;;;0.75;;
37641;SDS011;23486;51.956;5.888;2022-10-16T03:20:40;2.55;;;0.82;;
37641;SDS011;23486;51.956;5.888;2022-10-16T03:23:07;4.50;;;1.20;;
37641;SDS011;23486;51.956;5.888;2022-10-16T03:25:33;3.35;;;1.20;;
37641;SDS011;23486;51.956;5.888;2022-10-16T03:27:59;3.53;;;1.55;;
37641;SDS011;23486;51.956;5.888;2022-10-16T03:30:24;4.63;;;1.63;;
37641;SDS011;23486;51.956;5.888;2022-10-16T03:32:50;4.03;;;1.52;;
37641;SDS011;23486;51.956;5.888;2022-10-16T03:35:19;4.07;;;1.67;;
37641;SDS011;23486;51.956;5.888;2022-10-16T03:37:48;4.45;;;1.42;;
37641;SDS011;23486;51.956;5.888;2022-10-16T03:40:14;4.65;;;1.65;;
37641;SDS011;23486;51.956;5.888;2022-10-16T03:42:40;4.45;;;1.40;;
37641;SDS011;23486;51.956;5.888;2022-10-16T03:45:07;2.65;;;0.98;;
37641;SDS011;23486;51.956;5.888;2022-10-16T03:47:33;3.08;;;1.17;;
37641;SDS011;23486;51.956;5.888;2022-10-16T03:49:59;3.63;;;0.82;;
37641;SDS011;23486;51.956;5.888;2022-10-16T03:52:24;3.88;;;1.20;;
37641;SDS011;23486;51.956;5.888;2022-10-16T03:54:50;3.47;;;1.17;;
37641;SDS011;23486;51.956;5.888;2022-10-16T03:57:16;5.15;;;1.58;;
37641;SDS011;23486;51.956;5.888;2022-10-16T03:59:41;2.42;;;0.80;;
37641;SDS011;23486;51.956;5.888;2022-10-16T04:02:07;2.78;;;0.82;;
37641;SDS011;23486;51.956;5.888;2022-10-16T04:04:33;3.92;;;0.73;;
37641;SDS011;23486;51.956;5.888;2022-10-16T04:06:58;3.47;;;0.90;;
37641;SDS011;23486;51.956;5.888;2022-10-16T04:09:24;3.17;;;1.20;;
37641;SDS011;23486;51.956;5.888;2022-10-16T04:11:49;3.72;;;1.25;;
37641;SDS011;23486;51.956;5.888;2022-10-16T04:14:15;3.30;;;1.33;;
37641;SDS011;23486;51.956;5.888;2022-10-16T04:16:41;3.95;;;1.15;;
37641;SDS011;23486;51.956;5.888;2022-10-16T04:19:06;2.75;;;1.05;;
37641;SDS011;23486;51.956;5.888;2022-10-16T04:21:32;4.03;;;1.10;;
37641;SDS011;23486;51.956;5.888;2022-10-16T04:23:58;2.75;;;1.20;;
37641;SDS011;23486;51.956;5.888;2022-10-16T04:26:23;4.82;;;0.70;;
37641;SDS011;23486;51.956;5.888;2022-10-16T04:28:49;2.78;;;0.90;;
37641;SDS011;23486;51.956;5.888;2022-10-16T04:31:14;4.63;;;1.20;;
37641;SDS011;23486;51.956;5.888;2022-10-16T04:33:42;2.97;;;0.90;;
37641;SDS011;23486;51.956;5.888;2022-10-16T04:36:08;2.70;;;0.90;;
37641;SDS011;23486;51.956;5.888;2022-10-16T04:38:33;2.72;;;0.88;;
37641;SDS011;23486;51.956;5.888;2022-10-16T04:40:59;3.80;;;0.80;;
37641;SDS011;23486;51.956;5.888;2022-10-16T04:43:25;3.78;;;1.17;;
37641;SDS011;23486;51.956;5.888;2022-10-16T04:45:51;2.65;;;0.90;;
37641;SDS011;23486;51.956;5.888;2022-10-16T04:48:18;2.78;;;0.90;;
37641;SDS011;23486;51.956;5.888;2022-10-16T04:50:43;3.25;;;1.08;;
37641;SDS011;23486;51.956;5.888;2022-10-16T04:53:09;2.10;;;1.00;;
37641;SDS011;23486;51.956;5.888;2022-10-16T04:55:34;2.25;;;0.80;;
37641;SDS011;23486;51.956;5.888;2022-10-16T04:58:00;2.25;;;0.80;;
37641;SDS011;23486;51.956;5.888;2022-10-16T05:00:26;3.78;;;0.70;;
37641;SDS011;23486;51.956;5.888;2022-10-16T05:02:51;3.08;;;1.00;;
37641;SDS011;23486;51.956;5.888;2022-10-16T05:05:17;5.13;;;1.10;;
37641;SDS011;23486;51.956;5.888;2022-10-16T05:07:44;2.88;;;0.90;;
37641;SDS011;23486;51.956;5.888;2022-10-16T05:10:11;2.53;;;1.10;;
37641;SDS011;23486;51.956;5.888;2022-10-16T05:12:36;3.10;;;1.10;;
37641;SDS011;23486;51.956;5.888;2022-10-16T05:15:02;3.20;;;1.20;;
37641;SDS011;23486;51.956;5.888;2022-10-16T05:17:28;2.58;;;0.90;;
37641;SDS011;23486;51.956;5.888;2022-10-16T05:19:53;3.03;;;1.00;;
37641;SDS011;23486;51.956;5.888;2022-10-16T05:22:19;2.47;;;0.98;;
37641;SDS011;23486;51.956;5.888;2022-10-16T05:24:45;2.33;;;0.80;;
37641;SDS011;23486;51.956;5.888;2022-10-16T05:27:10;3.50;;;1.25;;
37641;SDS011;23486;51.956;5.888;2022-10-16T05:29:43;2.75;;;0.73;;
37641;SDS011;23486;51.956;5.888;2022-10-16T05:32:16;2.85;;;0.70;;
37641;SDS011;23486;51.956;5.888;2022-10-16T05:34:43;3.47;;;0.80;;
37641;SDS011;23486;51.956;5.888;2022-10-16T05:37:09;6.93;;;1.48;;
37641;SDS011;23486;51.956;5.888;2022-10-16T05:39:36;3.05;;;1.05;;
37641;SDS011;23486;51.956;5.888;2022-10-16T05:42:02;3.45;;;1.25;;
37641;SDS011;23486;51.956;5.888;2022-10-16T05:44:28;3.00;;;0.98;;
37641;SDS011;23486;51.956;5.888;2022-10-16T05:46:54;3.00;;;1.15;;
37641;SDS011;23486;51.956;5.888;2022-10-16T05:49:20;4.03;;;1.10;;
37641;SDS011;23486;51.956;5.888;2022-10-16T05:51:45;3.72;;;1.50;;
37641;SDS011;23486;51.956;5.888;2022-10-16T05:54:11;2.88;;;1.30;;
37641;SDS011;23486;51.956;5.888;2022-10-16T05:56:37;3.15;;;1.33;;
37641;SDS011;23486;51.956;5.888;2022-10-16T05:59:03;4.05;;;0.93;;
37641;SDS011;23486;51.956;5.888;2022-10-16T06:01:29;2.67;;;1.38;;
37641;SDS011;23486;51.956;5.888;2022-10-16T06:03:56;5.18;;;1.80;;
37641;SDS011;23486;51.956;5.888;2022-10-16T06:06:23;3.42;;;1.23;;
37641;SDS011;23486;51.956;5.888;2022-10-16T06:08:50;7.07;;;1.77;;
37641;SDS011;23486;51.956;5.888;2022-10-16T06:11:21;3.05;;;1.05;;
37641;SDS011;23486;51.956;5.888;2022-10-16T06:13:52;3.50;;;1.42;;
37641;SDS011;23486;51.956;5.888;2022-10-16T06:16:19;3.28;;;1.35;;
37641;SDS011;23486;51.956;5.888;2022-10-16T06:18:45;3.55;;;1.40;;
37641;SDS011;23486;51.956;5.888;2022-10-16T06:21:16;7.15;;;1.67;;
37641;SDS011;23486;51.956;5.888;2022-10-16T06:23:43;4.28;;;1.70;;
37641;SDS011;23486;51.956;5.888;2022-10-16T06:26:11;4.50;;;1.65;;
37641;SDS011;23486;51.956;5.888;2022-10-16T06:28:39;4.43;;;1.85;;
37641;SDS011;23486;51.956;5.888;2022-10-16T06:31:05;3.45;;;1.52;;
37641;SDS011;23486;51.956;5.888;2022-10-16T06:33:32;6.38;;;2.03;;
37641;SDS011;23486;51.956;5.888;2022-10-16T06:36:14;4.00;;;1.85;;
37641;SDS011;23486;51.956;5.888;2022-10-16T06:38:41;5.15;;;1.80;;
37641;SDS011;23486;51.956;5.888;2022-10-16T06:41:08;3.97;;;1.52;;
37641;SDS011;23486;51.956;5.888;2022-10-16T06:43:39;5.10;;;1.20;;
37641;SDS011;23486;51.956;5.888;2022-10-16T06:46:05;3.78;;;1.65;;
37641;SDS011;23486;51.956;5.888;2022-10-16T06:48:35;3.47;;;1.40;;
37641;SDS011;23486;51.956;5.888;2022-10-16T06:51:05;3.45;;;1.45;;
37641;SDS011;23486;51.956;5.888;2022-10-16T06:53:34;5.45;;;1.20;;
37641;SDS011;23486;51.956;5.888;2022-10-16T06:56:14;3.80;;;1.20;;
37641;SDS011;23486;51.956;5.888;2022-10-16T06:58:41;4.55;;;1.23;;
37641;SDS011;23486;51.956;5.888;2022-10-16T07:01:08;3.63;;;1.40;;
37641;SDS011;23486;51.956;5.888;2022-10-16T07:03:38;3.10;;;1.02;;
37641;SDS011;23486;51.956;5.888;2022-10-16T07:06:05;4.38;;;1.35;;
37641;SDS011;23486;51.956;5.888;2022-10-16T07:08:32;3.58;;;1.33;;
37641;SDS011;23486;51.956;5.888;2022-10-16T07:11:03;6.40;;;1.05;;
37641;SDS011;23486;51.956;5.888;2022-10-16T07:13:37;4.22;;;1.13;;
37641;SDS011;23486;51.956;5.888;2022-10-16T07:16:14;4.93;;;1.10;;
37641;SDS011;23486;51.956;5.888;2022-10-16T07:18:41;4.68;;;1.40;;
37641;SDS011;23486;51.956;5.888;2022-10-16T07:21:10;5.40;;;1.35;;
37641;SDS011;23486;51.956;5.888;2022-10-16T07:23:38;4.38;;;1.40;;
37641;SDS011;23486;51.956;5.888;2022-10-16T07:26:04;5.10;;;1.58;;
37641;SDS011;23486;51.956;5.888;2022-10-16T07:28:30;3.35;;;1.00;;
37641;SDS011;23486;51.956;5.888;2022-10-16T07:31:00;5.88;;;1.20;;
37641;SDS011;23486;51.956;5.888;2022-10-16T07:33:30;5.03;;;1.00;;
37641;SDS011;23486;51.956;5.888;2022-10-16T07:35:56;3.78;;;0.93;;
37641;SDS011;23486;51.956;5.888;2022-10-16T07:38:22;4.28;;;1.17;;
37641;SDS011;23486;51.956;5.888;2022-10-16T07:40:55;6.13;;;1.30;;
37641;SDS011;23486;51.956;5.888;2022-10-16T07:43:28;6.43;;;1.38;;
37641;SDS011;23486;51.956;5.888;2022-10-16T07:45:54;4.35;;;1.50;;
37641;SDS011;23486;51.956;5.888;2022-10-16T07:48:20;4.43;;;1.10;;
37641;SDS011;23486;51.956;5.888;2022-10-16T07:50:46;3.90;;;1.30;;
37641;SDS011;23486;51.956;5.888;2022-10-16T07:53:12;4.70;;;1.35;;
37641;SDS011;23486;51.956;5.888;2022-10-16T07:55:39;3.55;;;1.23;;
37641;SDS011;23486;51.956;5.888;2022-10-16T07:58:04;5.50;;;1.63;;
37641;SDS011;23486;51.956;5.888;2022-10-16T08:00:31;4.25;;;1.25;;
37641;SDS011;23486;51.956;5.888;2022-10-16T08:02:57;5.43;;;1.50;;
37641;SDS011;23486;51.956;5.888;2022-10-16T08:05:27;6.13;;;1.50;;
37641;SDS011;23486;51.956;5.888;2022-10-16T08:07:53;3.95;;;1.20;;
37641;SDS011;23486;51.956;5.888;2022-10-16T08:10:20;3.35;;;0.90;;
37641;SDS011;23486;51.956;5.888;2022-10-16T08:12:47;6.55;;;1.88;;
37641;SDS011;23486;51.956;5.888;2022-10-16T08:15:13;3.35;;;1.17;;
37641;SDS011;23486;51.956;5.888;2022-10-16T08:17:39;4.35;;;1.05;;
37641;SDS011;23486;51.956;5.888;2022-10-16T08:20:05;4.78;;;1.08;;
37641;SDS011;23486;51.956;5.888;2022-10-16T08:22:31;5.47;;;1.30;;
37641;SDS011;23486;51.956;5.888;2022-10-16T08:24:56;5.72;;;1.38;;
37641;SDS011;23486;51.956;5.888;2022-10-16T08:27:22;4.13;;;1.17;;
37641;SDS011;23486;51.956;5.888;2022-10-16T08:29:50;3.80;;;1.02;;
37641;SDS011;23486;51.956;5.888;2022-10-16T08:32:16;4.88;;;1.45;;
37641;SDS011;23486;51.956;5.888;2022-10-16T08:34:42;4.22;;;1.30;;
37641;SDS011;23486;51.956;5.888;2022-10-16T08:37:07;7.32;;;2.05;;
37641;SDS011;23486;51.956;5.888;2022-10-16T08:39:36;4.03;;;0.90;;
37641;SDS011;23486;51.956;5.888;2022-10-16T08:47:49;5.47;;;0.80;;
37641;SDS011;23486;51.956;5.888;2022-10-16T08:50:35;2.42;;;0.80;;
37641;SDS011;23486;51.956;5.888;2022-10-16T08:53:03;2.85;;;1.08;;
37641;SDS011;23486;51.956;5.888;2022-10-16T08:55:38;3.40;;;0.85;;
37641;SDS011;23486;51.956;5.888;2022-10-16T08:58:12;6.18;;;1.13;;
37641;SDS011;23486;51.956;5.888;2022-10-16T09:00:43;4.78;;;1.20;;
37641;SDS011;23486;51.956;5.888;2022-10-16T09:03:29;5.32;;;0.68;;
37641;SDS011;23486;51.956;5.888;2022-10-16T09:06:20;3.65;;;0.82;;
37641;SDS011;23486;51.956;5.888;2022-10-16T09:17:16;2.70;;;0.70;;
37641;SDS011;23486;51.956;5.888;2022-10-16T09:25:45;4.88;;;0.57;;
37641;SDS011;23486;51.956;5.888;2022-10-16T09:28:13;3.70;;;0.60;;
37641;SDS011;23486;51.956;5.888;2022-10-16T09:30:40;3.28;;;0.60;;
37641;SDS011;23486;51.956;5.888;2022-10-16T09:33:06;2.47;;;0.60;;
37641;SDS011;23486;51.956;5.888;2022-10-16T09:35:38;5.22;;;0.60;;
37641;SDS011;23486;51.956;5.888;2022-10-16T09:38:05;4.53;;;0.60;;
37641;SDS011;23486;51.956;5.888;2022-10-16T09:40:32;3.78;;;0.52;;
37641;SDS011;23486;51.956;5.888;2022-10-16T09:46:00;5.32;;;0.88;;
37641;SDS011;23486;51.956;5.888;2022-10-16T09:48:39;4.63;;;0.70;;
37641;SDS011;23486;51.956;5.888;2022-10-16T09:51:23;6.53;;;0.60;;
37641;SDS011;23486;51.956;5.888;2022-10-16T09:56:29;4.97;;;0.80;;
37641;SDS011;23486;51.956;5.888;2022-10-16T09:59:01;3.28;;;0.57;;
37641;SDS011;23486;51.956;5.888;2022-10-16T10:01:43;6.40;;;0.60;;
37641;SDS011;23486;51.956;5.888;2022-10-16T10:04:14;3.75;;;0.60;;
37641;SDS011;23486;51.956;5.888;2022-10-16T10:06:41;7.35;;;0.75;;
37641;SDS011;23486;51.956;5.888;2022-10-16T10:16:49;7.07;;;0.80;;
37641;SDS011;23486;51.956;5.888;2022-10-16T10:19:18;7.32;;;0.70;;
37641;SDS011;23486;51.956;5.888;2022-10-16T10:21:46;4.05;;;0.47;;
37641;SDS011;23486;51.956;5.888;2022-10-16T10:24:15;5.15;;;0.75;;
37641;SDS011;23486;51.956;5.888;2022-10-16T10:29:31;5.32;;;0.90;;
37641;SDS011;23486;51.956;5.888;2022-10-16T10:37:21;7.78;;;0.75;;
37641;SDS011;23486;51.956;5.888;2022-10-16T10:40:08;7.65;;;0.50;;
37641;SDS011;23486;51.956;5.888;2022-10-16T10:43:29;5.18;;;0.45;;
37641;SDS011;23486;51.956;5.888;2022-10-16T10:48:21;6.43;;;0.80;;
37641;SDS011;23486;51.956;5.888;2022-10-16T10:50:57;4.93;;;0.40;;
37641;SDS011;23486;51.956;5.888;2022-10-16T10:53:45;5.50;;;0.50;;
37641;SDS011;23486;51.956;5.888;2022-10-16T11:04:32;6.88;;;0.43;;
37641;SDS011;23486;51.956;5.888;2022-10-16T11:07:05;11.20;;;0.73;;
37641;SDS011;23486;51.956;5.888;2022-10-16T11:09:51;5.63;;;0.50;;
37641;SDS011;23486;51.956;5.888;2022-10-16T11:12:32;6.00;;;0.50;;
37641;SDS011;23486;51.956;5.888;2022-10-16T11:18:08;7.68;;;0.50;;
37641;SDS011;23486;51.956;5.888;2022-10-16T11:20:44;8.23;;;0.93;;
37641;SDS011;23486;51.956;5.888;2022-10-16T11:25:49;5.55;;;0.40;;
37641;SDS011;23486;51.956;5.888;2022-10-16T11:28:18;4.75;;;0.50;;
37641;SDS011;23486;51.956;5.888;2022-10-16T11:33:44;8.13;;;0.70;;
37641;SDS011;23486;51.956;5.888;2022-10-16T11:39:12;11.23;;;0.60;;
37641;SDS011;23486;51.956;5.888;2022-10-16T11:41:44;7.15;;;0.95;;
37641;SDS011;23486;51.956;5.888;2022-10-16T11:52:44;8.52;;;0.50;;
37641;SDS011;23486;51.956;5.888;2022-10-16T11:55:17;8.88;;;0.40;;
37641;SDS011;23486;51.956;5.888;2022-10-16T11:57:51;8.30;;;0.55;;
37641;SDS011;23486;51.956;5.888;2022-10-16T12:00:28;6.30;;;0.88;;
37641;SDS011;23486;51.956;5.888;2022-10-16T12:03:11;10.68;;;0.93;;
37641;SDS011;23486;51.956;5.888;2022-10-16T12:05:54;6.57;;;0.50;;
37641;SDS011;23486;51.956;5.888;2022-10-16T12:08:33;6.65;;;0.60;;
37641;SDS011;23486;51.956;5.888;2022-10-16T12:11:19;3.58;;;0.40;;
37641;SDS011;23486;51.956;5.888;2022-10-16T12:13:51;6.70;;;0.43;;
37641;SDS011;23486;51.956;5.888;2022-10-16T12:16:28;11.18;;;0.70;;
37641;SDS011;23486;51.956;5.888;2022-10-16T12:21:50;4.50;;;0.85;;
37641;SDS011;23486;51.956;5.888;2022-10-16T12:24:21;6.93;;;0.73;;
37641;SDS011;23486;51.956;5.888;2022-10-16T12:26:54;7.10;;;0.40;;
37641;SDS011;23486;51.956;5.888;2022-10-16T12:29:23;8.07;;;0.52;;
37641;SDS011;23486;51.956;5.888;2022-10-16T12:31:57;10.38;;;1.20;;
37641;SDS011;23486;51.956;5.888;2022-10-16T12:35:05;5.38;;;0.43;;
37641;SDS011;23486;51.956;5.888;2022-10-16T12:39:48;6.88;;;0.50;;
37641;SDS011;23486;51.956;5.888;2022-10-16T12:44:54;4.20;;;0.40;;
37641;SDS011;23486;51.956;5.888;2022-10-16T12:50:23;7.43;;;0.50;;
37641;SDS011;23486;51.956;5.888;2022-10-16T12:52:48;5.68;;;0.40;;
37641;SDS011;23486;51.956;5.888;2022-10-16T12:55:18;9.85;;;0.77;;
37641;SDS011;23486;51.956;5.888;2022-10-16T13:00:31;6.65;;;0.65;;
37641;SDS011;23486;51.956;5.888;2022-10-16T13:03:23;7.53;;;0.70;;
37641;SDS011;23486;51.956;5.888;2022-10-16T13:12:00;8.65;;;0.60;;
37641;SDS011;23486;51.956;5.888;2022-10-16T13:18:03;6.07;;;0.40;;
37641;SDS011;23486;51.956;5.888;2022-10-16T13:23:30;5.13;;;0.40;;
37641;SDS011;23486;51.956;5.888;2022-10-16T13:29:20;7.97;;;1.00;;
37641;SDS011;23486;51.956;5.888;2022-10-16T13:31:46;5.53;;;0.40;;
37641;SDS011;23486;51.956;5.888;2022-10-16T13:34:15;4.28;;;0.30;;
37641;SDS011;23486;51.956;5.888;2022-10-16T13:36:45;6.15;;;0.50;;
37641;SDS011;23486;51.956;5.888;2022-10-16T13:39:19;6.07;;;0.50;;
37641;SDS011;23486;51.956;5.888;2022-10-16T13:42:00;4.20;;;0.60;;
37641;SDS011;23486;51.956;5.888;2022-10-16T13:44:27;6.95;;;0.50;;
37641;SDS011;23486;51.956;5.888;2022-10-16T13:46:59;5.63;;;0.65;;
37641;SDS011;23486;51.956;5.888;2022-10-16T13:49:27;4.82;;;0.40;;
37641;SDS011;23486;51.956;5.888;2022-10-16T13:51:59;6.43;;;0.40;;
37641;SDS011;23486;51.956;5.888;2022-10-16T13:54:25;10.73;;;0.63;;
37641;SDS011;23486;51.956;5.888;2022-10-16T13:56:53;6.13;;;0.60;;
37641;SDS011;23486;51.956;5.888;2022-10-16T13:59:26;6.30;;;0.75;;
37641;SDS011;23486;51.956;5.888;2022-10-16T14:01:57;3.03;;;0.40;;
37641;SDS011;23486;51.956;5.888;2022-10-16T14:04:31;4.97;;;0.43;;
37641;SDS011;23486;51.956;5.888;2022-10-16T14:06:57;5.65;;;0.43;;
37641;SDS011;23486;51.956;5.888;2022-10-16T14:09:24;5.72;;;0.55;;
37641;SDS011;23486;51.956;5.888;2022-10-16T14:11:56;5.88;;;0.45;;
37641;SDS011;23486;51.956;5.888;2022-10-16T14:14:29;6.07;;;0.40;;
37641;SDS011;23486;51.956;5.888;2022-10-16T14:19:27;8.35;;;0.40;;
37641;SDS011;23486;51.956;5.888;2022-10-16T14:21:54;6.25;;;0.40;;
37641;SDS011;23486;51.956;5.888;2022-10-16T14:26:52;3.25;;;0.40;;
37641;SDS011;23486;51.956;5.888;2022-10-16T14:29:21;4.40;;;0.30;;
37641;SDS011;23486;51.956;5.888;2022-10-16T14:34:32;5.13;;;0.50;;
37641;SDS011;23486;51.956;5.888;2022-10-16T14:37:13;5.00;;;0.57;;
37641;SDS011;23486;51.956;5.888;2022-10-16T14:39:50;4.75;;;0.40;;
37641;SDS011;23486;51.956;5.888;2022-10-16T14:42:16;7.40;;;0.70;;
37641;SDS011;23486;51.956;5.888;2022-10-16T14:44:45;5.85;;;0.85;;
37641;SDS011;23486;51.956;5.888;2022-10-16T14:47:19;3.60;;;0.50;;
37641;SDS011;23486;51.956;5.888;2022-10-16T14:49:49;4.50;;;0.35;;
37641;SDS011;23486;51.956;5.888;2022-10-16T14:52:16;3.72;;;0.40;;
37641;SDS011;23486;51.956;5.888;2022-10-16T14:54:42;5.00;;;0.30;;
37641;SDS011;23486;51.956;5.888;2022-10-16T14:57:16;4.40;;;0.40;;
37641;SDS011;23486;51.956;5.888;2022-10-16T14:59:47;6.18;;;0.40;;
37641;SDS011;23486;51.956;5.888;2022-10-16T15:02:18;6.22;;;0.40;;
37641;SDS011;23486;51.956;5.888;2022-10-16T15:04:45;4.07;;;0.50;;
37641;SDS011;23486;51.956;5.888;2022-10-16T15:07:11;5.10;;;0.50;;
37641;SDS011;23486;51.956;5.888;2022-10-16T15:09:37;5.72;;;0.40;;
37641;SDS011;23486;51.956;5.888;2022-10-16T15:12:03;6.68;;;0.50;;
37641;SDS011;23486;51.956;5.888;2022-10-16T15:14:29;3.60;;;0.40;;
37641;SDS011;23486;51.956;5.888;2022-10-16T15:16:54;4.38;;;0.50;;
37641;SDS011;23486;51.956;5.888;2022-10-16T15:19:20;5.38;;;0.30;;
37641;SDS011;23486;51.956;5.888;2022-10-16T15:21:45;6.03;;;0.47;;
37641;SDS011;23486;51.956;5.888;2022-10-16T15:24:12;4.60;;;0.40;;
37641;SDS011;23486;51.956;5.888;2022-10-16T15:26:38;2.92;;;0.40;;
37641;SDS011;23486;51.956;5.888;2022-10-16T15:29:04;4.60;;;0.40;;
37641;SDS011;23486;51.956;5.888;2022-10-16T15:31:30;6.70;;;0.47;;
37641;SDS011;23486;51.956;5.888;2022-10-16T15:33:56;6.22;;;0.50;;
37641;SDS011;23486;51.956;5.888;2022-10-16T15:36:33;3.70;;;0.40;;
37641;SDS011;23486;51.956;5.888;2022-10-16T15:39:18;6.60;;;0.55;;
37641;SDS011;23486;51.956;5.888;2022-10-16T15:41:45;5.75;;;0.68;;
37641;SDS011;23486;51.956;5.888;2022-10-16T15:44:19;4.70;;;0.43;;
37641;SDS011;23486;51.956;5.888;2022-10-16T15:46:45;4.70;;;0.40;;
37641;SDS011;23486;51.956;5.888;2022-10-16T15:49:11;4.13;;;0.45;;
37641;SDS011;23486;51.956;5.888;2022-10-16T15:51:37;4.95;;;0.40;;
37641;SDS011;23486;51.956;5.888;2022-10-16T15:54:13;4.13;;;0.55;;
37641;SDS011;23486;51.956;5.888;2022-10-16T15:56:39;5.38;;;0.57;;
37641;SDS011;23486;51.956;5.888;2022-10-16T15:59:04;5.57;;;1.02;;
37641;SDS011;23486;51.956;5.888;2022-10-16T16:01:36;4.30;;;0.50;;
37641;SDS011;23486;51.956;5.888;2022-10-16T16:04:04;8.43;;;0.68;;
37641;SDS011;23486;51.956;5.888;2022-10-16T16:06:30;5.82;;;0.73;;
37641;SDS011;23486;51.956;5.888;2022-10-16T16:08:55;7.38;;;0.70;;
37641;SDS011;23486;51.956;5.888;2022-10-16T16:11:21;7.90;;;0.90;;
37641;SDS011;23486;51.956;5.888;2022-10-16T16:13:48;5.13;;;0.60;;
37641;SDS011;23486;51.956;5.888;2022-10-16T16:16:15;3.15;;;0.60;;
37641;SDS011;23486;51.956;5.888;2022-10-16T16:18:43;3.88;;;0.70;;
37641;SDS011;23486;51.956;5.888;2022-10-16T16:21:09;5.28;;;0.47;;
37641;SDS011;23486;51.956;5.888;2022-10-16T16:23:37;4.30;;;0.60;;
37641;SDS011;23486;51.956;5.888;2022-10-16T16:26:12;3.72;;;0.70;;
37641;SDS011;23486;51.956;5.888;2022-10-16T16:28:51;5.85;;;0.82;;
37641;SDS011;23486;51.956;5.888;2022-10-16T16:31:18;5.32;;;0.43;;
37641;SDS011;23486;51.956;5.888;2022-10-16T16:33:45;4.15;;;0.50;;
37641;SDS011;23486;51.956;5.888;2022-10-16T16:36:11;6.30;;;0.50;;
37641;SDS011;23486;51.956;5.888;2022-10-16T16:38:36;3.08;;;0.60;;
37641;SDS011;23486;51.956;5.888;2022-10-16T16:41:15;5.10;;;0.63;;
37641;SDS011;23486;51.956;5.888;2022-10-16T16:43:43;4.85;;;0.43;;
37641;SDS011;23486;51.956;5.888;2022-10-16T16:46:09;3.63;;;0.60;;
37641;SDS011;23486;51.956;5.888;2022-10-16T16:48:34;6.68;;;0.40;;
37641;SDS011;23486;51.956;5.888;2022-10-16T16:51:07;5.50;;;0.57;;
37641;SDS011;23486;51.956;5.888;2022-10-16T16:53:34;2.97;;;0.55;;
37641;SDS011;23486;51.956;5.888;2022-10-16T16:56:04;3.38;;;0.70;;
37641;SDS011;23486;51.956;5.888;2022-10-16T16:58:31;5.75;;;0.60;;
37641;SDS011;23486;51.956;5.888;2022-10-16T17:00:57;5.50;;;0.73;;
37641;SDS011;23486;51.956;5.888;2022-10-16T17:03:33;5.55;;;0.70;;
37641;SDS011;23486;51.956;5.888;2022-10-16T17:06:03;2.55;;;0.60;;
37641;SDS011;23486;51.956;5.888;2022-10-16T17:08:31;2.45;;;0.50;;
37641;SDS011;23486;51.956;5.888;2022-10-16T17:10:58;2.75;;;0.50;;
37641;SDS011;23486;51.956;5.888;2022-10-16T17:13:24;6.45;;;0.82;;